WFL2094 SKCL-LEMD
Flight info
| Callsign | WFL2094 |
|---|---|
| Flight time | N/A |
| Altitude | 37000 |
| Route | KIKUM5B ULQ DCT BUTBA DCT SERVO DCT ELB DCT UGOSA DCT AMBAS UL335 SCAPA L335 OBIKE/M084F370 M576 RKDIA DCT 28N050W/M084F390 33N040W 36N030W 38N020W/M084F410 DCT GUNTI/N0481F400 DCT TOFEF DCT OGERO DCT ROLDO Z409 TLD |
| Aircraft | A359/H-SDE2E3GHIJ3J4J5LM1ORWXY/LB1D1 |
Departure
| Time | N/A |
|---|---|
| Airport | Alfonso Bonilla Aragon International Airport (SKCL) |
Arrival
| Time | 2026-05-06 06:48 |
|---|---|
| Airport | Adolfo Suárez Madrid–Barajas Airport (LEMD) |
| Time | Latitude | Longitude | Altitude | Speed | Heading |
|---|---|---|---|---|---|
| 2026-05-06 05:57 | 39.55647 | -7.26848 | 41017 ft | 522 kts | 69° |
| 2026-05-06 05:57 | 39.56897 | -7.22428 | 41017 ft | 522 kts | 68° |
| 2026-05-06 05:57 | 39.59457 | -7.13603 | 41026 ft | 523 kts | 68° |
| 2026-05-06 05:58 | 39.62005 | -7.04775 | 41017 ft | 523 kts | 68° |
| 2026-05-06 05:58 | 39.64528 | -6.95920 | 41014 ft | 523 kts | 69° |
| 2026-05-06 05:59 | 39.67015 | -6.87122 | 41014 ft | 523 kts | 69° |
| 2026-05-06 05:59 | 39.69511 | -6.78261 | 41014 ft | 523 kts | 69° |
| 2026-05-06 06:00 | 39.72005 | -6.69378 | 41016 ft | 524 kts | 69° |
| 2026-05-06 06:00 | 39.74494 | -6.60483 | 41012 ft | 524 kts | 69° |
| 2026-05-06 06:01 | 39.76978 | -6.51577 | 41004 ft | 524 kts | 69° |
| 2026-05-06 06:01 | 39.79419 | -6.42653 | 41000 ft | 524 kts | 72° |
| 2026-05-06 06:02 | 39.80791 | -6.33343 | 41005 ft | 525 kts | 82° |
| 2026-05-06 06:02 | 39.81683 | -6.23917 | 41001 ft | 525 kts | 84° |
| 2026-05-06 06:03 | 39.82489 | -6.14456 | 41000 ft | 525 kts | 84° |
| 2026-05-06 06:03 | 39.83295 | -6.05003 | 41000 ft | 526 kts | 84° |
| 2026-05-06 06:04 | 39.84113 | -5.95534 | 41001 ft | 527 kts | 84° |
| 2026-05-06 06:04 | 39.84924 | -5.86121 | 40807 ft | 516 kts | 84° |
| 2026-05-06 06:05 | 39.85317 | -5.81527 | 40054 ft | 519 kts | 84° |
| 2026-05-06 06:05 | 39.85717 | -5.76837 | 39218 ft | 524 kts | 84° |
| 2026-05-06 06:05 | 39.86118 | -5.72100 | 38391 ft | 528 kts | 84° |
| 2026-05-06 06:05 | 39.86519 | -5.67339 | 37549 ft | 530 kts | 84° |
| 2026-05-06 06:06 | 39.86918 | -5.62577 | 36861 ft | 529 kts | 84° |
| 2026-05-06 06:06 | 39.87314 | -5.57825 | 36194 ft | 528 kts | 84° |
| 2026-05-06 06:06 | 39.87709 | -5.53065 | 35519 ft | 528 kts | 84° |
| 2026-05-06 06:06 | 39.88099 | -5.48314 | 34842 ft | 528 kts | 84° |
| 2026-05-06 06:07 | 39.88491 | -5.43551 | 34063 ft | 531 kts | 84° |
| 2026-05-06 06:07 | 39.88883 | -5.38761 | 33178 ft | 533 kts | 84° |
| 2026-05-06 06:07 | 39.89273 | -5.33968 | 32347 ft | 533 kts | 84° |
| 2026-05-06 06:07 | 39.89662 | -5.29167 | 31595 ft | 532 kts | 84° |
| 2026-05-06 06:08 | 39.90047 | -5.24393 | 31006 ft | 528 kts | 84° |
| 2026-05-06 06:08 | 39.90427 | -5.19658 | 30418 ft | 524 kts | 84° |
| 2026-05-06 06:08 | 39.90802 | -5.14955 | 29789 ft | 520 kts | 84° |
| 2026-05-06 06:08 | 39.91172 | -5.10282 | 29170 ft | 515 kts | 84° |
| 2026-05-06 06:09 | 39.91536 | -5.05660 | 28575 ft | 510 kts | 84° |
| 2026-05-06 06:09 | 39.91895 | -5.01081 | 28004 ft | 505 kts | 84° |
| 2026-05-06 06:09 | 39.92249 | -4.96546 | 27420 ft | 501 kts | 84° |
| 2026-05-06 06:09 | 39.92592 | -4.92121 | 26877 ft | 496 kts | 84° |
| 2026-05-06 06:10 | 39.92936 | -4.87666 | 26317 ft | 493 kts | 84° |
| 2026-05-06 06:10 | 39.93276 | -4.83244 | 25752 ft | 489 kts | 84° |
| 2026-05-06 06:10 | 39.93616 | -4.78790 | 25188 ft | 485 kts | 84° |
| 2026-05-06 06:10 | 39.93944 | -4.74495 | 24631 ft | 482 kts | 84° |
| 2026-05-06 06:11 | 39.94271 | -4.70168 | 24087 ft | 478 kts | 84° |
| 2026-05-06 06:11 | 39.94595 | -4.65871 | 23507 ft | 475 kts | 84° |
| 2026-05-06 06:11 | 39.94916 | -4.61591 | 22877 ft | 471 kts | 84° |
| 2026-05-06 06:11 | 39.95233 | -4.57366 | 22345 ft | 465 kts | 84° |
| 2026-05-06 06:12 | 39.95540 | -4.53187 | 21789 ft | 460 kts | 84° |
| 2026-05-06 06:12 | 39.95842 | -4.49059 | 21230 ft | 455 kts | 84° |
| 2026-05-06 06:12 | 39.96139 | -4.44978 | 20672 ft | 450 kts | 84° |
| 2026-05-06 06:12 | 39.96432 | -4.40939 | 20132 ft | 446 kts | 84° |
| 2026-05-06 06:13 | 39.96598 | -4.36929 | 19564 ft | 442 kts | 92° |
| 2026-05-06 06:13 | 39.96023 | -4.33083 | 19027 ft | 435 kts | 111° |
| 2026-05-06 06:13 | 39.94584 | -4.29674 | 18463 ft | 427 kts | 129° |
| 2026-05-06 06:13 | 39.92727 | -4.26676 | 17886 ft | 422 kts | 133° |
| 2026-05-06 06:14 | 39.90843 | -4.23772 | 17334 ft | 416 kts | 132° |
| 2026-05-06 06:14 | 39.88987 | -4.20886 | 16780 ft | 411 kts | 132° |
| 2026-05-06 06:14 | 39.87172 | -4.18035 | 16255 ft | 407 kts | 131° |
| 2026-05-06 06:14 | 39.85385 | -4.15207 | 15714 ft | 403 kts | 131° |
| 2026-05-06 06:15 | 39.83835 | -4.12189 | 15187 ft | 401 kts | 116° |
| 2026-05-06 06:15 | 39.83003 | -4.08755 | 14650 ft | 398 kts | 101° |
| 2026-05-06 06:15 | 39.82526 | -4.05273 | 14117 ft | 394 kts | 99° |
| 2026-05-06 06:15 | 39.82091 | -4.01777 | 13757 ft | 385 kts | 99° |
| 2026-05-06 06:16 | 39.81689 | -3.98407 | 13584 ft | 370 kts | 97° |
| 2026-05-06 06:16 | 39.81742 | -3.95101 | 13118 ft | 363 kts | 77° |
| 2026-05-06 06:16 | 39.82675 | -3.92104 | 12670 ft | 355 kts | 54° |
| 2026-05-06 06:16 | 39.84238 | -3.89664 | 12240 ft | 348 kts | 44° |
| 2026-05-06 06:17 | 39.85931 | -3.87432 | 11809 ft | 344 kts | 43° |
| 2026-05-06 06:17 | 39.87617 | -3.85237 | 11393 ft | 340 kts | 43° |
| 2026-05-06 06:17 | 39.89256 | -3.83088 | 10984 ft | 337 kts | 43° |
| 2026-05-06 06:17 | 39.90895 | -3.80926 | 10605 ft | 333 kts | 44° |
| 2026-05-06 06:18 | 39.92482 | -3.78822 | 10463 ft | 319 kts | 44° |
| 2026-05-06 06:18 | 39.94003 | -3.76800 | 10330 ft | 305 kts | 44° |
| 2026-05-06 06:18 | 39.95459 | -3.74860 | 10219 ft | 293 kts | 44° |
| 2026-05-06 06:18 | 39.96862 | -3.72989 | 10006 ft | 286 kts | 44° |
| 2026-05-06 06:19 | 39.98254 | -3.71133 | 9701 ft | 288 kts | 44° |
| 2026-05-06 06:19 | 39.99666 | -3.69249 | 9363 ft | 291 kts | 44° |
| 2026-05-06 06:19 | 40.01079 | -3.67362 | 9059 ft | 290 kts | 44° |
| 2026-05-06 06:19 | 40.02468 | -3.65504 | 8757 ft | 289 kts | 44° |
| 2026-05-06 06:20 | 40.03865 | -3.63633 | 8457 ft | 287 kts | 44° |
| 2026-05-06 06:20 | 40.05257 | -3.61774 | 8159 ft | 286 kts | 44° |
| 2026-05-06 06:20 | 40.06641 | -3.59922 | 7841 ft | 284 kts | 44° |
| 2026-05-06 06:20 | 40.08015 | -3.58078 | 7556 ft | 283 kts | 44° |
| 2026-05-06 06:21 | 40.09380 | -3.56245 | 7268 ft | 281 kts | 44° |
| 2026-05-06 06:21 | 40.10731 | -3.54429 | 7059 ft | 273 kts | 45° |
| 2026-05-06 06:21 | 40.12028 | -3.52685 | 6929 ft | 262 kts | 44° |
| 2026-05-06 06:21 | 40.13280 | -3.51001 | 6727 ft | 256 kts | 44° |
| 2026-05-06 06:22 | 40.14520 | -3.49334 | 6488 ft | 255 kts | 45° |
| 2026-05-06 06:22 | 40.15757 | -3.47670 | 6197 ft | 254 kts | 45° |
| 2026-05-06 06:22 | 40.16987 | -3.46015 | 6014 ft | 253 kts | 45° |
| 2026-05-06 06:22 | 40.18250 | -3.44414 | 5810 ft | 252 kts | 41° |
| 2026-05-06 06:23 | 40.19563 | -3.42894 | 5436 ft | 252 kts | 40° |
| 2026-05-06 06:23 | 40.20896 | -3.41466 | 5082 ft | 250 kts | 33° |
| 2026-05-06 06:23 | 40.22373 | -3.40293 | 4754 ft | 247 kts | 29° |
| 2026-05-06 06:23 | 40.23872 | -3.39215 | 4397 ft | 245 kts | 28° |
| 2026-05-06 06:24 | 40.25460 | -3.38466 | 4060 ft | 242 kts | 8° |
| 2026-05-06 06:24 | 40.27126 | -3.38519 | 3991 ft | 240 kts | 354° |
| 2026-05-06 06:24 | 40.28203 | -3.38701 | 3980 ft | 230 kts | 353° |
| 2026-05-06 06:24 | 40.29729 | -3.39048 | 3973 ft | 215 kts | 345° |
| 2026-05-06 06:25 | 40.31041 | -3.39910 | 3989 ft | 211 kts | 326° |
| 2026-05-06 06:25 | 40.32226 | -3.41048 | 3989 ft | 211 kts | 324° |
| 2026-05-06 06:25 | 40.34375 | -3.43250 | 3989 ft | 177 kts | 324° |
| 2026-05-06 06:26 | 40.35304 | -3.44198 | 3987 ft | 163 kts | 323° |
| 2026-05-06 06:26 | 40.36170 | -3.45083 | 3984 ft | 153 kts | 323° |
| 2026-05-06 06:26 | 40.36985 | -3.45914 | 3984 ft | 145 kts | 323° |
| 2026-05-06 06:26 | 40.37771 | -3.46712 | 3993 ft | 145 kts | 324° |
| 2026-05-06 06:27 | 40.38581 | -3.47531 | 3947 ft | 146 kts | 324° |
| 2026-05-06 06:27 | 40.39374 | -3.48332 | 3774 ft | 145 kts | 324° |
| 2026-05-06 06:27 | 40.40171 | -3.49142 | 3572 ft | 145 kts | 324° |
| 2026-05-06 06:27 | 40.40968 | -3.49953 | 3367 ft | 144 kts | 324° |
| 2026-05-06 06:28 | 40.41766 | -3.50755 | 3161 ft | 144 kts | 325° |
| 2026-05-06 06:28 | 40.42553 | -3.51566 | 2924 ft | 143 kts | 322° |
| 2026-05-06 06:28 | 40.43332 | -3.52353 | 2753 ft | 141 kts | 324° |
| 2026-05-06 06:28 | 40.44104 | -3.53123 | 2535 ft | 137 kts | 324° |
| 2026-05-06 06:29 | 40.44850 | -3.53903 | 2398 ft | 139 kts | 322° |
| 2026-05-06 06:29 | 40.45610 | -3.54678 | 2191 ft | 138 kts | 324° |
| 2026-05-06 06:29 | 40.46360 | -3.55438 | 1998 ft | 136 kts | 322° |
| 2026-05-06 06:29 | 40.47065 | -3.56164 | 1992 ft | 119 kts | 323° |
| 2026-05-06 06:30 | 40.47684 | -3.56797 | 2125 ft | 117 kts | 323° |
| 2026-05-06 06:30 | 40.48413 | -3.57545 | 2732 ft | 144 kts | 323° |
| 2026-05-06 06:30 | 40.49243 | -3.58402 | 3614 ft | 156 kts | 322° |
| 2026-05-06 06:30 | 40.50054 | -3.59298 | 4459 ft | 154 kts | 315° |
| 2026-05-06 06:31 | 40.50742 | -3.60489 | 4929 ft | 175 kts | 297° |
| 2026-05-06 06:31 | 40.51206 | -3.62095 | 5008 ft | 202 kts | 288° |
| 2026-05-06 06:31 | 40.51603 | -3.63923 | 5000 ft | 212 kts | 285° |
| 2026-05-06 06:31 | 40.51879 | -3.65889 | 4984 ft | 228 kts | 275° |
| 2026-05-06 06:32 | 40.51829 | -3.68010 | 4999 ft | 235 kts | 262° |
| 2026-05-06 06:32 | 40.51547 | -3.70103 | 4988 ft | 236 kts | 259° |
| 2026-05-06 06:32 | 40.51223 | -3.72219 | 4979 ft | 236 kts | 259° |
| 2026-05-06 06:32 | 40.50902 | -3.74336 | 4983 ft | 236 kts | 260° |
| 2026-05-06 06:33 | 40.50581 | -3.76454 | 4986 ft | 236 kts | 259° |
| 2026-05-06 06:33 | 40.50119 | -3.78524 | 4990 ft | 237 kts | 249° |
| 2026-05-06 06:33 | 40.49346 | -3.80429 | 4991 ft | 237 kts | 236° |
| 2026-05-06 06:33 | 40.48273 | -3.82072 | 4994 ft | 237 kts | 226° |
| 2026-05-06 06:34 | 40.47182 | -3.83701 | 4972 ft | 238 kts | 226° |
| 2026-05-06 06:34 | 40.45935 | -3.85145 | 4984 ft | 239 kts | 220° |
| 2026-05-06 06:34 | 40.44645 | -3.86524 | 5000 ft | 239 kts | 220° |
| 2026-05-06 06:34 | 40.43340 | -3.87883 | 5313 ft | 240 kts | 220° |
| 2026-05-06 06:35 | 40.41887 | -3.88981 | 5756 ft | 242 kts | 201° |
| 2026-05-06 06:35 | 40.40234 | -3.89308 | 5963 ft | 241 kts | 175° |
| 2026-05-06 06:35 | 40.38659 | -3.88612 | 5988 ft | 241 kts | 153° |
| 2026-05-06 06:35 | 40.37205 | -3.87560 | 5979 ft | 242 kts | 150° |
| 2026-05-06 06:36 | 40.35751 | -3.86446 | 5981 ft | 242 kts | 149° |
| 2026-05-06 06:36 | 40.34451 | -3.85036 | 5986 ft | 246 kts | 131° |
| 2026-05-06 06:36 | 40.33429 | -3.83192 | 5987 ft | 252 kts | 123° |
| 2026-05-06 06:36 | 40.32510 | -3.81231 | 5982 ft | 254 kts | 121° |
| 2026-05-06 06:37 | 40.31610 | -3.79233 | 5981 ft | 255 kts | 121° |
| 2026-05-06 06:37 | 40.30716 | -3.77222 | 5980 ft | 255 kts | 120° |
| 2026-05-06 06:37 | 40.29824 | -3.75207 | 5980 ft | 255 kts | 120° |
| 2026-05-06 06:37 | 40.28946 | -3.73222 | 5994 ft | 255 kts | 120° |
| 2026-05-06 06:38 | 40.28057 | -3.71209 | 5991 ft | 255 kts | 120° |
| 2026-05-06 06:38 | 40.27170 | -3.69199 | 5996 ft | 255 kts | 120° |
| 2026-05-06 06:38 | 40.26281 | -3.67186 | 5994 ft | 255 kts | 120° |
| 2026-05-06 06:38 | 40.25394 | -3.65178 | 5992 ft | 255 kts | 120° |
| 2026-05-06 06:39 | 40.24503 | -3.63163 | 5993 ft | 255 kts | 121° |
| 2026-05-06 06:39 | 40.23613 | -3.61152 | 5998 ft | 255 kts | 120° |
| 2026-05-06 06:39 | 40.22724 | -3.59143 | 5987 ft | 255 kts | 121° |
| 2026-05-06 06:39 | 40.21833 | -3.57133 | 5988 ft | 255 kts | 121° |
| 2026-05-06 06:40 | 40.20944 | -3.55127 | 5992 ft | 255 kts | 120° |
| 2026-05-06 06:40 | 40.20052 | -3.53116 | 5983 ft | 255 kts | 121° |
| 2026-05-06 06:40 | 40.19165 | -3.51108 | 5988 ft | 255 kts | 120° |
| 2026-05-06 06:40 | 40.18515 | -3.48960 | 5984 ft | 255 kts | 101° |
| 2026-05-06 06:41 | 40.18543 | -3.46670 | 5984 ft | 253 kts | 75° |
| 2026-05-06 06:41 | 40.19401 | -3.44696 | 5983 ft | 251 kts | 41° |
| 2026-05-06 06:41 | 40.20904 | -3.43595 | 5990 ft | 249 kts | 19° |
| 2026-05-06 06:41 | 40.22546 | -3.42851 | 5984 ft | 250 kts | 18° |
| 2026-05-06 06:42 | 40.24171 | -3.42111 | 5987 ft | 250 kts | 19° |
| 2026-05-06 06:42 | 40.25808 | -3.41323 | 5820 ft | 250 kts | 20° |
| 2026-05-06 06:42 | 40.27427 | -3.40511 | 5624 ft | 249 kts | 20° |
| 2026-05-06 06:42 | 40.29059 | -3.39754 | 5356 ft | 247 kts | 13° |
| 2026-05-06 06:43 | 40.30744 | -3.39828 | 5024 ft | 244 kts | 340° |
| 2026-05-06 06:43 | 40.32192 | -3.40953 | 4692 ft | 241 kts | 324° |
| 2026-05-06 06:43 | 40.33510 | -3.42303 | 4366 ft | 239 kts | 322° |
| 2026-05-06 06:43 | 40.34800 | -3.43649 | 4146 ft | 232 kts | 322° |
| 2026-05-06 06:44 | 40.36022 | -3.44911 | 4042 ft | 220 kts | 323° |
| 2026-05-06 06:44 | 40.37183 | -3.46104 | 4011 ft | 202 kts | 323° |
| 2026-05-06 06:44 | 40.38227 | -3.47171 | 3982 ft | 179 kts | 324° |
| 2026-05-06 06:44 | 40.39174 | -3.48113 | 3803 ft | 164 kts | 323° |
| 2026-05-06 06:45 | 40.40039 | -3.49007 | 3584 ft | 153 kts | 324° |
| 2026-05-06 06:45 | 40.40858 | -3.49837 | 3378 ft | 144 kts | 324° |
| 2026-05-06 06:45 | 40.41644 | -3.50638 | 3223 ft | 143 kts | 324° |
| 2026-05-06 06:45 | 40.42435 | -3.51436 | 2981 ft | 143 kts | 323° |
| 2026-05-06 06:46 | 40.43216 | -3.52213 | 2765 ft | 139 kts | 322° |
| 2026-05-06 06:46 | 40.43961 | -3.52998 | 2572 ft | 137 kts | 321° |
| 2026-05-06 06:46 | 40.44705 | -3.53787 | 2375 ft | 137 kts | 322° |
| 2026-05-06 06:46 | 40.45467 | -3.54540 | 2236 ft | 139 kts | 324° |
| 2026-05-06 06:47 | 40.46239 | -3.55313 | 2007 ft | 139 kts | 322° |
| 2026-05-06 06:47 | 40.46965 | -3.56056 | 1990 ft | 123 kts | 323° |
| 2026-05-06 06:47 | 40.47586 | -3.56685 | 2001 ft | 102 kts | 323° |
| 2026-05-06 06:47 | 40.48072 | -3.57178 | 2008 ft | 75 kts | 322° |
| 2026-05-06 06:48 | 40.48401 | -3.57502 | 2001 ft | 37 kts | 332° |
| 2026-05-06 06:48 | 40.48528 | -3.57573 | 1997 ft | 7 kts | 3° |
| 2026-05-06 06:48 | 40.48589 | -3.57560 | 1999 ft | 11 kts | 4° |
| 2026-05-06 06:48 | 40.48650 | -3.57507 | 1996 ft | 12 kts | 52° |
| 2026-05-06 06:49 | 40.48719 | -3.57449 | 1994 ft | 13 kts | 5° |
| 2026-05-06 06:49 | 40.48765 | -3.57410 | 1996 ft | 6 kts | 81° |
| 2026-05-06 06:49 | 40.48765 | -3.57309 | 1994 ft | 16 kts | 90° |
| 2026-05-06 06:49 | 40.48766 | -3.57141 | 1991 ft | 20 kts | 89° |
| 2026-05-06 06:50 | 40.48767 | -3.56937 | 1988 ft | 24 kts | 89° |
| 2026-05-06 06:50 | 40.48767 | -3.56702 | 1984 ft | 27 kts | 90° |
| 2026-05-06 06:50 | 40.48779 | -3.56561 | 1979 ft | 8 kts | 45° |
| 2026-05-06 06:50 | 40.48839 | -3.56542 | 1976 ft | 11 kts | 4° |
| 2026-05-06 06:51 | 40.48919 | -3.56539 | 1979 ft | 11 kts | 355° |
| 2026-05-06 06:51 | 40.48999 | -3.56541 | 1976 ft | 13 kts | 360° |
| 2026-05-06 06:51 | 40.49096 | -3.56542 | 1976 ft | 15 kts | 359° |
| 2026-05-06 06:51 | 40.49187 | -3.56543 | 1977 ft | 7 kts | 359° |
| 2026-05-06 06:52 | 40.49210 | -3.56568 | 1982 ft | 4 kts | 302° |
| 2026-05-06 06:52 | 40.49214 | -3.56594 | 1982 ft | 2 kts | 276° |
| 2026-05-06 06:52 | 40.49216 | -3.56611 | 1977 ft | 2 kts | 276° |
| 2026-05-06 06:52 | 40.49216 | -3.56633 | 1979 ft | 3 kts | 269° |
| 2026-05-06 06:53 | 40.49216 | -3.56645 | 1978 ft | 0 kts | 269° |
| 2026-05-06 06:53 | 40.49216 | -3.56649 | 1979 ft | 0 kts | 269° |
| 2026-05-06 06:53 | 40.49216 | -3.56652 | 1980 ft | 0 kts | 270° |